createdAt,value
2019-02-16T15:31:25.752Z,1011.46
2019-02-16T15:32:36.742Z,1011.34
2019-02-16T15:33:37.003Z,1011.23
2019-02-16T15:34:36.920Z,1011.16
2019-02-16T15:35:38.185Z,1011.04
2019-02-16T15:36:38.421Z,1010.96
2019-02-16T15:37:38.626Z,1010.90
2019-02-16T15:38:38.848Z,1010.77
2019-02-16T15:39:39.136Z,1010.76
2019-02-16T15:40:39.428Z,1010.79
2019-02-16T15:41:39.448Z,1010.72
2019-02-16T15:42:39.670Z,1010.72
2019-02-16T15:43:39.772Z,1010.71
2019-02-16T15:44:40.072Z,1010.67
2019-02-16T15:45:40.198Z,1010.70
2019-02-16T15:46:41.307Z,1010.70
2019-02-16T15:47:40.578Z,1010.64
2019-02-16T15:48:41.282Z,1010.67
2019-02-16T15:49:41.191Z,1010.67
2019-02-16T15:50:42.211Z,1010.74
2019-02-16T15:51:42.208Z,1010.75
2019-02-16T15:52:41.437Z,1010.75
2019-02-16T15:53:41.558Z,1010.76
2019-02-16T15:54:41.688Z,1010.75
2019-02-16T15:55:41.782Z,1010.70
2019-02-16T15:56:42.061Z,1010.71
2019-02-16T15:57:42.203Z,1010.67
2019-02-16T15:58:42.372Z,1010.69
2019-02-16T15:59:42.600Z,1010.71
2019-02-16T16:00:42.831Z,1010.71
2019-02-16T16:01:43.036Z,1010.75
2019-02-16T16:02:43.165Z,1010.76
2019-02-16T16:03:43.465Z,1010.73
2019-02-16T16:04:44.559Z,1010.83
2019-02-16T16:05:43.959Z,1010.87
2019-02-16T16:06:44.135Z,1010.84
2019-02-16T16:07:44.232Z,1010.93
2019-02-16T16:08:44.294Z,1011.01
2019-02-16T16:09:44.421Z,1011.02
2019-02-16T16:10:44.513Z,1011.08
2019-02-16T16:11:44.729Z,1011.22
2019-02-16T16:12:46.047Z,1011.18
2019-02-16T16:13:45.187Z,1011.19
2019-02-16T16:14:46.404Z,1011.23
2019-02-16T16:15:45.542Z,1011.28
2019-02-16T16:16:46.051Z,1011.46
2019-02-16T16:17:46.118Z,1011.45
2019-02-16T16:18:46.257Z,1011.44
2019-02-16T16:19:46.509Z,1011.49
2019-02-16T16:20:46.568Z,1011.48
2019-02-16T16:21:46.901Z,1011.51
2019-02-16T16:22:47.523Z,1011.53
2019-02-16T16:23:46.984Z,1011.56
2019-02-16T16:24:47.346Z,1011.59
2019-02-16T16:25:48.417Z,1011.57
2019-02-16T16:26:49.065Z,1011.63
2019-02-16T16:27:48.891Z,1011.59
2019-02-16T16:28:48.080Z,1011.59
2019-02-16T16:29:48.201Z,1011.61
2019-02-16T16:30:48.349Z,1011.80
2019-02-16T16:31:48.487Z,1011.78
2019-02-16T16:32:48.748Z,1011.72
2019-02-16T16:33:48.856Z,1011.75
2019-02-16T16:34:49.149Z,1011.81
2019-02-16T16:35:49.381Z,1011.79
2019-02-16T16:36:49.885Z,1011.87
2019-02-16T16:37:49.902Z,1011.97
2019-02-16T16:38:50.333Z,1011.93
2019-02-16T16:39:50.155Z,1011.95
2019-02-16T16:40:51.386Z,1011.98
2019-02-16T16:41:50.608Z,1012.06
2019-02-16T16:42:50.860Z,1012.08
2019-02-16T16:43:50.823Z,1012.09
2019-02-16T16:44:51.060Z,1012.14
2019-02-16T16:45:51.182Z,1012.11
2019-02-16T16:46:51.397Z,1012.19
2019-02-16T16:47:51.698Z,1012.29
2019-02-16T16:48:51.945Z,1012.34
2019-02-16T16:49:52.152Z,1012.31
2019-02-16T16:50:52.196Z,1012.35
2019-02-16T16:51:52.384Z,1012.45
2019-02-16T16:52:52.582Z,1012.35
2019-02-16T16:53:52.769Z,1012.46
2019-02-16T16:54:53.034Z,1012.42
2019-02-16T16:55:53.132Z,1012.46
2019-02-16T16:56:53.353Z,1012.50
2019-02-16T16:57:53.442Z,1012.50
2019-02-16T16:58:53.652Z,1012.52
2019-02-16T16:59:54.385Z,1012.54
2019-02-16T17:00:54.080Z,1012.57
2019-02-16T17:01:54.287Z,1012.63
2019-02-16T17:02:54.490Z,1012.65
2019-02-16T17:16:59.525Z,1013.64
2019-02-16T17:17:59.723Z,1013.62
2019-02-16T17:18:59.461Z,1013.61
2019-02-16T17:19:59.353Z,1013.63
2019-02-16T17:21:00.414Z,1013.59
2019-02-16T17:21:59.648Z,1013.66
2019-02-16T17:22:59.783Z,1013.63
2019-02-16T17:23:59.954Z,1013.58
2019-02-16T17:25:00.140Z,1013.60
2019-02-16T17:26:00.258Z,1013.61
2019-02-16T17:27:00.458Z,1013.56
2019-02-16T17:28:00.637Z,1013.61
2019-02-16T17:29:00.793Z,1013.59
2019-02-16T17:30:00.961Z,1013.62
2019-02-16T17:31:01.126Z,1013.54
2019-02-16T17:32:01.383Z,1013.64
2019-02-16T17:33:01.450Z,1013.64
2019-02-16T17:34:01.649Z,1013.68
2019-02-16T17:35:01.667Z,1013.65
2019-02-16T17:36:01.920Z,1013.73
2019-02-16T17:37:02.009Z,1013.72
2019-02-16T17:38:02.320Z,1013.72
2019-02-16T17:39:02.374Z,1013.79
2019-02-16T17:40:03.312Z,1013.78
2019-02-16T17:41:02.719Z,1013.84
2019-02-16T17:42:03.814Z,1013.83
2019-02-16T17:43:03.107Z,1013.85
2019-02-16T17:44:03.305Z,1013.85
2019-02-16T17:45:03.399Z,1013.89
2019-02-16T17:46:03.559Z,1013.91
2019-02-16T17:47:03.677Z,1013.89
2019-02-16T17:48:03.855Z,1013.91
2019-02-16T17:49:03.995Z,1013.96
2019-02-16T17:50:04.114Z,1013.97
2019-02-16T17:51:04.303Z,1013.98
2019-02-16T17:52:04.419Z,1014.08
2019-02-16T17:53:04.785Z,1014.02
2019-02-16T17:54:08.404Z,1014.05
2019-02-16T17:55:06.091Z,1014.04
2019-02-16T17:56:05.262Z,1014.03
2019-02-16T17:57:05.486Z,1014.05
2019-02-16T17:58:05.533Z,1014.11
2019-02-16T17:59:05.724Z,1014.09
2019-02-16T18:30:38.219Z,1015.17
2019-02-16T18:31:39.143Z,1015.14
2019-02-16T18:32:39.572Z,1015.16
2019-02-16T18:33:40.423Z,1015.19
2019-02-16T18:34:40.555Z,1015.11
2019-02-16T18:35:39.833Z,1015.07
2019-02-16T18:36:40.771Z,1015.05
2019-02-16T18:37:40.892Z,1015.05
2019-02-16T18:38:40.952Z,1015.11
2019-02-16T18:39:40.517Z,1015.04
2019-02-16T18:40:40.672Z,1015.02
2019-02-16T18:41:40.805Z,1014.97
2019-02-16T18:42:40.980Z,1014.97
2019-02-16T18:43:41.121Z,1014.98
2019-02-16T18:44:41.254Z,1014.95
2019-02-16T18:45:41.493Z,1014.96
2019-02-16T18:46:41.603Z,1014.99
2019-02-16T18:47:41.806Z,1014.98
2019-02-16T18:48:41.975Z,1014.93
2019-02-16T18:49:42.174Z,1014.95
2019-02-16T18:50:42.343Z,1014.93
2019-02-16T18:51:42.525Z,1014.96
2019-02-16T18:52:42.626Z,1014.95
2019-02-16T18:53:42.873Z,1014.92
2019-02-16T18:54:43.044Z,1014.98
2019-02-16T18:55:43.270Z,1014.92
2019-02-16T18:56:43.444Z,1014.99
2019-02-16T18:57:43.725Z,1015.02
2019-02-16T18:58:43.812Z,1015.06
2019-02-16T18:59:43.983Z,1015.03
2019-02-16T20:00:39.157Z,1016.04
2019-02-16T20:01:40.610Z,1016.13
2019-02-16T20:02:41.320Z,1016.04
2019-02-16T20:03:40.425Z,1015.96
2019-02-16T20:04:40.562Z,1015.96
2019-02-16T20:05:40.708Z,1015.97
2019-02-16T20:06:40.812Z,1015.88
2019-02-16T20:07:41.091Z,1015.83
2019-02-16T20:08:41.294Z,1015.86
2019-02-16T20:09:41.387Z,1015.82
2019-02-16T20:10:41.714Z,1015.81
2019-02-16T20:11:41.881Z,1015.77
2019-02-16T20:12:42.018Z,1015.77
2019-02-16T20:13:43.141Z,1015.74
2019-02-16T20:14:42.419Z,1015.74
2019-02-16T20:15:42.652Z,1015.78
2019-02-16T20:16:42.729Z,1015.77
2019-02-16T20:17:42.995Z,1015.70
2019-02-16T20:18:43.120Z,1015.73
2019-02-16T20:19:43.311Z,1015.76
2019-02-16T20:20:43.482Z,1015.74
2019-02-16T20:21:43.695Z,1015.77
2019-02-16T20:22:43.873Z,1015.70
2019-02-16T20:23:44.017Z,1015.71
2019-02-16T20:24:44.152Z,1015.72
2019-02-16T20:25:44.356Z,1015.76
2019-02-16T20:26:44.975Z,1015.72
2019-02-16T20:27:44.714Z,1015.74
2019-02-16T20:28:44.905Z,1015.74
2019-02-16T20:29:45.055Z,1015.64
2019-02-16T20:30:45.222Z,1015.71
2019-02-16T20:31:45.346Z,1015.80
2019-02-16T20:32:45.579Z,1015.72
2019-02-16T20:33:45.721Z,1015.76
2019-02-16T20:34:45.874Z,1015.80
2019-02-16T20:35:46.110Z,1015.76
2019-02-16T20:36:46.314Z,1015.80
2019-02-16T20:37:46.454Z,1015.82
2019-02-16T20:38:46.806Z,1015.83
2019-02-16T20:39:46.928Z,1015.93
2019-02-16T20:40:47.148Z,1015.86
2019-02-16T20:41:47.357Z,1015.83
2019-02-16T20:42:47.610Z,1015.89
2019-02-16T20:43:47.750Z,1015.82
2019-02-16T20:44:47.975Z,1015.90
2019-02-16T20:45:48.161Z,1015.86
2019-02-16T20:46:48.477Z,1015.78
2019-02-16T20:47:48.693Z,1015.83
2019-02-16T20:48:48.625Z,1015.84
2019-02-16T20:49:48.840Z,1015.88
2019-02-16T20:50:49.213Z,1015.88
2019-02-16T20:51:49.327Z,1015.88
2019-02-16T20:52:49.519Z,1015.82
2019-02-16T20:53:50.476Z,1015.87
2019-02-16T20:54:49.803Z,1015.90
2019-02-16T20:55:50.215Z,1015.88
2019-02-16T20:56:50.239Z,1015.93
2019-02-16T20:57:50.274Z,1015.88
2019-02-16T20:58:50.466Z,1015.90
2019-02-16T20:59:50.692Z,1015.87
2019-02-16T21:27:00.599Z,1016.18
2019-02-16T21:27:46.226Z,1016.13
2019-02-16T21:28:13.540Z,1016.12
2019-02-16T21:29:14.715Z,1016.09
2019-02-16T21:31:52.295Z,1016.06
2019-02-16T21:35:52.054Z,1016.02
2019-02-16T21:40:56.041Z,1016.01
2019-02-16T21:41:21.435Z,1016.06
2019-02-16T21:48:12.119Z,1016.04
2019-02-16T21:49:04.068Z,1016.08
2019-02-16T21:50:04.224Z,1016.14
2019-02-16T21:51:04.284Z,1016.06
2019-02-16T21:52:34.708Z,1016.05
2019-02-16T21:53:28.965Z,1016.06
2019-02-16T21:56:51.243Z,1016.04
2019-02-16T21:58:10.253Z,1016.07
